createdAt,value
2022-10-28T00:00:47.681Z,65.67
2022-10-28T00:03:14.646Z,65.31
2022-10-28T00:05:41.584Z,64.97
2022-10-28T00:08:08.509Z,65.33
2022-10-28T00:10:35.671Z,65.16
2022-10-28T00:13:02.726Z,65.97
2022-10-28T00:15:30.190Z,66.35
2022-10-28T00:17:57.428Z,65.18
2022-10-28T00:20:24.481Z,64.77
2022-10-28T00:22:53.829Z,64.77
2022-10-28T00:25:24.918Z,65.24
2022-10-28T00:27:53.050Z,65.96
2022-10-28T00:30:20.716Z,66.50
2022-10-28T00:32:47.875Z,66.93
2022-10-28T00:35:15.253Z,65.66
2022-10-28T00:37:42.210Z,65.10
2022-10-28T00:40:10.847Z,65.53
2022-10-28T00:42:38.746Z,65.62
2022-10-28T00:45:06.350Z,66.15
2022-10-28T00:47:40.253Z,66.19
2022-10-28T00:50:26.943Z,66.26
2022-10-28T00:52:56.611Z,65.33
2022-10-28T00:55:23.589Z,65.05
2022-10-28T00:57:51.553Z,65.17
2022-10-28T01:00:19.008Z,64.65
2022-10-28T01:02:47.588Z,65.19
2022-10-28T01:05:17.198Z,65.87
2022-10-28T01:07:44.844Z,65.91
2022-10-28T01:10:14.443Z,65.16
2022-10-28T01:13:11.413Z,64.32
2022-10-28T01:15:45.235Z,64.75
2022-10-28T01:18:31.127Z,65.12
2022-10-28T01:21:17.063Z,65.75
2022-10-28T01:23:44.353Z,66.14
2022-10-28T01:26:40.464Z,65.86
2022-10-28T01:29:30.752Z,64.50
2022-10-28T01:32:18.362Z,64.02
2022-10-28T01:34:45.439Z,64.50
2022-10-28T01:37:54.410Z,64.76
2022-10-28T01:40:27.737Z,65.13
2022-10-28T01:43:04.241Z,65.89
2022-10-28T01:45:35.908Z,66.21
2022-10-28T01:48:09.094Z,65.13
2022-10-28T01:50:57.287Z,64.58
2022-10-28T01:53:27.490Z,65.15
2022-10-28T01:55:55.633Z,65.61
2022-10-28T01:58:24.905Z,66.47
2022-10-28T02:00:51.954Z,66.81
2022-10-28T02:03:18.995Z,65.91
2022-10-28T02:05:50.603Z,65.59
2022-10-28T02:08:22.777Z,65.88
2022-10-28T02:11:08.684Z,65.84
2022-10-28T02:13:55.504Z,66.13
2022-10-28T02:16:34.633Z,66.78
2022-10-28T02:19:03.606Z,66.43
2022-10-28T02:21:36.830Z,65.13
2022-10-28T02:24:31.904Z,64.75
2022-10-28T02:27:14.056Z,65.49
2022-10-28T02:29:45.763Z,65.88
2022-10-28T02:32:18.856Z,66.71
2022-10-28T02:34:47.068Z,67.31
2022-10-28T02:37:43.874Z,67.23
2022-10-28T02:40:14.686Z,65.53
2022-10-28T02:42:45.702Z,65.41
2022-10-28T02:45:15.733Z,65.66
2022-10-28T02:47:46.691Z,65.90
2022-10-28T02:50:17.449Z,66.05
2022-10-28T02:52:47.030Z,66.88
2022-10-28T02:55:14.199Z,67.57
2022-10-28T02:57:42.835Z,66.83
2022-10-28T03:00:12.092Z,66.26
2022-10-28T03:02:39.052Z,66.16
2022-10-28T03:05:06.404Z,66.19
2022-10-28T03:07:34.055Z,66.78
2022-10-28T03:10:01.182Z,67.81
2022-10-28T03:12:28.352Z,67.55
2022-10-28T03:14:58.323Z,65.94
2022-10-28T03:17:25.310Z,65.12
2022-10-28T03:19:53.813Z,65.74
2022-10-28T03:22:20.992Z,66.24
2022-10-28T03:24:47.946Z,66.86
2022-10-28T03:27:14.804Z,67.54
2022-10-28T03:29:45.883Z,67.59
2022-10-28T03:32:13.803Z,66.28
2022-10-28T03:34:41.964Z,65.87
2022-10-28T03:37:09.081Z,66.09
2022-10-28T03:39:36.083Z,66.75
2022-10-28T03:42:03.651Z,67.17
2022-10-28T03:44:30.809Z,67.65
2022-10-28T03:46:58.477Z,67.23
2022-10-28T03:49:26.054Z,65.94
2022-10-28T03:51:52.970Z,65.18
2022-10-28T03:54:19.974Z,65.17
2022-10-28T03:56:46.980Z,65.84
2022-10-28T03:59:16.382Z,66.12
2022-10-28T04:01:46.781Z,67.07
2022-10-28T04:04:13.816Z,67.15
2022-10-28T04:06:41.209Z,66.47
2022-10-28T04:09:08.409Z,65.75
2022-10-28T04:11:35.550Z,65.54
2022-10-28T04:14:02.965Z,65.76
2022-10-28T04:16:30.201Z,67.14
2022-10-28T04:19:03.807Z,68.29
2022-10-28T04:21:30.857Z,67.16
2022-10-28T04:23:57.838Z,66.01
2022-10-28T04:26:25.254Z,65.87
2022-10-28T04:28:52.299Z,65.57
2022-10-28T04:31:19.414Z,65.74
2022-10-28T04:33:46.501Z,66.40
2022-10-28T04:36:13.955Z,66.94
2022-10-28T04:38:40.940Z,67.02
2022-10-28T04:41:12.774Z,65.77
2022-10-28T04:43:40.705Z,65.76
2022-10-28T04:46:07.868Z,65.38
2022-10-28T04:48:35.067Z,66.12
2022-10-28T04:51:02.127Z,66.85
2022-10-28T04:53:29.182Z,67.48
2022-10-28T04:55:59.559Z,67.60
2022-10-28T04:58:27.754Z,66.42
2022-10-28T05:00:54.659Z,65.94
2022-10-28T05:03:21.728Z,65.98
2022-10-28T05:05:48.900Z,65.90
2022-10-28T05:08:16.128Z,66.72
2022-10-28T05:10:49.002Z,67.88
2022-10-28T05:13:17.373Z,67.33
2022-10-28T05:15:44.625Z,66.50
2022-10-28T05:18:12.103Z,65.98
2022-10-28T05:20:39.242Z,65.87
2022-10-28T05:23:07.876Z,66.25
2022-10-28T05:25:35.489Z,66.88
2022-10-28T05:28:02.507Z,67.61
2022-10-28T05:30:29.723Z,67.36
2022-10-28T05:33:03.310Z,66.39
2022-10-28T05:35:33.315Z,65.74
2022-10-28T05:38:00.414Z,65.54
2022-10-28T05:40:27.692Z,65.29
2022-10-28T05:42:54.953Z,65.75
2022-10-28T05:45:25.664Z,66.29
2022-10-28T05:47:53.254Z,66.71
2022-10-28T05:50:20.715Z,64.87
2022-10-28T05:52:55.562Z,63.93
2022-10-28T05:55:24.047Z,64.24
2022-10-28T05:57:52.495Z,64.90
2022-10-28T06:00:21.331Z,64.74
2022-10-28T06:02:48.350Z,64.80
2022-10-28T06:05:17.077Z,65.68
2022-10-28T06:07:45.317Z,66.10
2022-10-28T06:10:12.435Z,64.57
2022-10-28T06:12:38.524Z,63.97
2022-10-28T06:15:06.270Z,64.25
2022-10-28T06:17:35.031Z,64.48
2022-10-28T06:20:02.415Z,64.85
2022-10-28T06:22:29.724Z,66.04
2022-10-28T06:24:56.909Z,65.71
2022-10-28T06:27:23.998Z,64.98
2022-10-28T06:29:51.263Z,64.89
2022-10-28T06:32:19.013Z,64.46
2022-10-28T06:34:46.038Z,64.49
2022-10-28T06:37:13.297Z,65.18
2022-10-28T06:39:43.094Z,65.75
2022-10-28T06:42:10.380Z,66.04
2022-10-28T06:44:37.827Z,64.44
2022-10-28T06:47:06.402Z,63.93
2022-10-28T06:49:33.913Z,63.92
2022-10-28T06:52:01.128Z,64.45
2022-10-28T06:54:28.141Z,64.97
2022-10-28T06:56:55.252Z,65.21
2022-10-28T06:59:22.298Z,65.15
2022-10-28T07:01:49.533Z,64.11
2022-10-28T07:04:16.629Z,63.39
2022-10-28T07:06:45.443Z,63.15
2022-10-28T07:09:15.489Z,63.69
2022-10-28T07:11:45.729Z,64.17
2022-10-28T07:14:13.317Z,64.60
2022-10-28T07:16:42.277Z,65.29
2022-10-28T07:19:10.137Z,64.80
2022-10-28T07:21:37.400Z,63.19
2022-10-28T07:24:04.813Z,62.17
2022-10-28T07:26:32.216Z,61.91
2022-10-28T07:28:59.263Z,62.17
2022-10-28T07:31:27.835Z,62.49
2022-10-28T07:33:54.843Z,63.06
2022-10-28T07:36:22.797Z,63.37
2022-10-28T07:38:51.929Z,64.07
2022-10-28T07:41:20.021Z,62.17
2022-10-28T07:43:47.071Z,60.84
2022-10-28T07:46:18.486Z,60.06
2022-10-28T07:48:46.180Z,60.45
2022-10-28T07:51:14.353Z,60.64
2022-10-28T07:53:43.899Z,61.07
2022-10-28T07:56:13.678Z,61.04
2022-10-28T07:58:42.176Z,61.64
2022-10-28T08:01:10.076Z,61.20
2022-10-28T08:03:39.031Z,59.06
2022-10-28T08:06:11.306Z,58.65
2022-10-28T08:08:38.448Z,58.64
2022-10-28T08:11:14.208Z,58.75
2022-10-28T08:13:41.184Z,58.55
2022-10-28T08:16:08.517Z,58.90
2022-10-28T08:18:36.975Z,58.61
2022-10-28T08:21:07.306Z,58.68
2022-10-28T08:23:34.508Z,59.07
2022-10-28T08:26:02.294Z,58.94
2022-10-28T08:28:29.650Z,57.62
2022-10-28T08:31:09.205Z,56.56
2022-10-28T08:33:38.747Z,56.29
2022-10-28T08:36:07.183Z,56.63
2022-10-28T08:38:34.249Z,56.82
2022-10-28T08:41:18.536Z,56.90
2022-10-28T08:44:04.698Z,56.59
2022-10-28T08:46:45.107Z,56.44
2022-10-28T08:49:13.880Z,56.68
2022-10-28T08:51:42.583Z,56.39
2022-10-28T08:54:41.950Z,55.78
2022-10-28T08:57:17.803Z,55.11
2022-10-28T08:59:45.813Z,54.49
2022-10-28T09:02:22.182Z,53.82
2022-10-28T09:05:02.650Z,53.13
2022-10-28T09:07:29.856Z,52.30
2022-10-28T09:09:56.873Z,52.17
2022-10-28T09:12:46.261Z,51.74
2022-10-28T09:15:29.033Z,51.20
2022-10-28T09:18:10.432Z,50.63
2022-10-28T09:20:54.653Z,49.21
2022-10-28T09:23:28.865Z,48.78
2022-10-28T09:26:41.033Z,48.09
2022-10-28T09:29:20.137Z,46.99
2022-10-28T09:31:56.003Z,46.74
2022-10-28T09:34:47.324Z,46.40
2022-10-28T09:37:18.498Z,44.94
2022-10-28T09:39:48.494Z,44.40
2022-10-28T09:42:27.846Z,44.02
2022-10-28T09:45:01.931Z,43.51
2022-10-28T09:47:37.714Z,43.86
2022-10-28T09:50:08.494Z,41.82
2022-10-28T09:52:43.365Z,42.22
2022-10-28T09:55:19.006Z,41.56
2022-10-28T09:57:46.161Z,41.98
2022-10-28T10:00:14.152Z,42.14
2022-10-28T10:02:42.853Z,40.83
2022-10-28T10:05:17.008Z,39.04
2022-10-28T10:07:53.972Z,39.37
2022-10-28T10:10:24.847Z,39.11
2022-10-28T10:12:52.876Z,38.89
2022-10-28T10:15:33.302Z,36.76
2022-10-28T10:18:01.014Z,35.99
2022-10-28T10:20:28.283Z,35.71
2022-10-28T10:22:56.515Z,35.67
2022-10-28T10:25:30.439Z,34.79
2022-10-28T10:27:57.917Z,33.25
2022-10-28T10:30:29.957Z,33.24
2022-10-28T10:32:57.463Z,33.26
2022-10-28T10:35:26.687Z,33.90
2022-10-28T10:37:55.615Z,32.54
2022-10-28T10:40:32.628Z,32.57
2022-10-28T10:43:18.092Z,33.10
2022-10-28T10:45:51.805Z,33.15
2022-10-28T10:48:19.039Z,31.76
2022-10-28T10:50:47.317Z,30.97
2022-10-28T10:53:18.781Z,31.20
2022-10-28T10:55:50.035Z,30.59
2022-10-28T10:58:21.169Z,30.71
2022-10-28T11:00:49.775Z,30.44
2022-10-28T11:03:25.895Z,29.38
2022-10-28T11:06:18.208Z,28.55
2022-10-28T11:08:44.366Z,29.14
2022-10-28T11:11:19.205Z,28.78
2022-10-28T11:13:48.517Z,28.24
2022-10-28T11:16:23.364Z,28.04
2022-10-28T11:18:52.116Z,27.19
2022-10-28T11:22:04.407Z,26.85
2022-10-28T11:24:55.602Z,25.70
2022-10-28T11:27:32.976Z,26.30
2022-10-28T11:30:00.928Z,25.62
2022-10-28T11:32:40.250Z,27.38
2022-10-28T11:35:16.007Z,26.04
2022-10-28T11:38:08.748Z,25.88
2022-10-28T11:41:00.891Z,26.83
2022-10-28T11:43:36.568Z,26.89
2022-10-28T11:46:26.748Z,26.67
2022-10-28T11:49:12.135Z,26.69
2022-10-28T11:51:57.659Z,26.63
2022-10-28T11:54:45.098Z,26.78
2022-10-28T11:57:16.376Z,26.45
2022-10-28T12:00:29.559Z,26.75
2022-10-28T12:03:25.903Z,26.52
2022-10-28T12:06:05.087Z,26.84
2022-10-28T12:08:50.983Z,26.28
2022-10-28T12:11:46.894Z,26.60
2022-10-28T12:14:34.495Z,26.82
2022-10-28T12:17:14.821Z,26.15
2022-10-28T12:20:10.436Z,26.83
2022-10-28T12:22:58.795Z,26.96
2022-10-28T12:25:31.415Z,27.52
2022-10-28T12:28:21.019Z,27.41
2022-10-28T12:30:49.316Z,27.20
2022-10-28T12:33:28.973Z,27.51
2022-10-28T12:36:13.388Z,27.48
2022-10-28T12:39:12.400Z,27.68
2022-10-28T12:41:45.068Z,27.50
2022-10-28T12:44:14.924Z,27.41
2022-10-28T12:47:03.296Z,27.60
2022-10-28T12:49:45.779Z,28.27
2022-10-28T12:52:18.840Z,28.10
2022-10-28T12:54:57.120Z,28.35
2022-10-28T12:57:24.279Z,28.25
2022-10-28T13:00:25.939Z,28.88
2022-10-28T13:03:01.821Z,28.02
2022-10-28T13:05:37.473Z,28.31
2022-10-28T13:12:03.216Z,28.41
2022-10-28T13:15:15.597Z,29.20
2022-10-28T13:18:09.979Z,29.81
2022-10-28T13:21:14.963Z,30.31
2022-10-28T13:23:44.162Z,31.20
2022-10-28T13:26:26.463Z,31.31
2022-10-28T13:28:58.295Z,32.26
2022-10-28T13:31:45.217Z,32.46
2022-10-28T13:34:13.934Z,32.68
2022-10-28T13:36:45.569Z,32.96
2022-10-28T13:39:43.543Z,33.12
2022-10-28T13:42:13.487Z,33.42
2022-10-28T13:44:50.797Z,34.26
2022-10-28T13:47:17.760Z,35.78
2022-10-28T13:50:08.621Z,35.62
2022-10-28T13:52:42.274Z,35.67
2022-10-28T13:55:21.915Z,36.77
2022-10-28T13:57:51.429Z,37.46
2022-10-28T14:00:18.521Z,38.88
2022-10-28T14:03:01.560Z,38.04
2022-10-28T14:05:32.462Z,39.90
2022-10-28T14:08:22.458Z,39.52
2022-10-28T14:11:00.475Z,39.36
2022-10-28T14:13:27.402Z,39.84
2022-10-28T14:16:26.571Z,40.56
2022-10-28T14:19:03.454Z,41.65
2022-10-28T14:21:59.174Z,42.32
2022-10-28T14:24:33.297Z,44.24
2022-10-28T14:27:10.026Z,45.14
2022-10-28T14:29:49.239Z,45.17
2022-10-28T14:32:31.691Z,44.95
2022-10-28T14:35:11.010Z,45.28
2022-10-28T14:38:02.561Z,47.37
2022-10-28T14:40:36.220Z,47.39
2022-10-28T14:43:15.914Z,48.02
2022-10-28T14:45:52.430Z,49.06
2022-10-28T14:48:46.264Z,49.01
2022-10-28T14:51:18.346Z,49.16
2022-10-28T14:53:45.555Z,49.06
2022-10-28T14:58:50.248Z,50.12
2022-10-28T15:01:17.368Z,50.13
2022-10-28T15:03:46.939Z,50.72
2022-10-28T15:06:37.468Z,50.95
2022-10-28T15:09:22.311Z,51.95
2022-10-28T15:11:52.654Z,51.43
2022-10-28T15:14:29.595Z,52.52
2022-10-28T15:16:58.364Z,52.71
2022-10-28T15:19:27.432Z,52.51
2022-10-28T15:22:04.426Z,52.87
2022-10-28T15:24:31.568Z,54.29
2022-10-28T15:26:58.585Z,54.80
2022-10-28T15:29:25.699Z,55.18
2022-10-28T15:32:13.881Z,55.87
2022-10-28T15:34:41.320Z,56.65
2022-10-28T15:37:08.327Z,57.19
2022-10-28T15:39:35.823Z,57.46
2022-10-28T15:42:02.911Z,57.46
2022-10-28T15:44:49.697Z,58.25
2022-10-28T15:47:32.803Z,57.49
2022-10-28T15:50:17.360Z,55.17
2022-10-28T15:52:48.363Z,54.78
2022-10-28T15:55:18.317Z,54.61
2022-10-28T15:57:48.032Z,54.78
2022-10-28T16:00:20.722Z,55.02
2022-10-28T16:02:55.845Z,55.42
2022-10-28T16:05:32.609Z,56.19
2022-10-28T16:08:00.976Z,56.53
2022-10-28T16:10:28.748Z,56.50
2022-10-28T16:12:55.656Z,57.47
2022-10-28T16:15:22.647Z,57.94
2022-10-28T16:17:50.386Z,58.48
2022-10-28T16:20:21.974Z,58.84
2022-10-28T16:22:49.133Z,58.28
2022-10-28T16:25:20.716Z,57.23
2022-10-28T16:27:51.362Z,56.42
2022-10-28T16:30:18.609Z,56.92
2022-10-28T16:32:47.544Z,57.07
2022-10-28T16:35:16.430Z,57.01
2022-10-28T16:37:46.519Z,57.56
2022-10-28T16:40:37.538Z,57.54
2022-10-28T16:43:04.209Z,57.49
2022-10-28T16:45:31.506Z,58.15
2022-10-28T16:48:01.322Z,58.99
2022-10-28T16:50:28.299Z,59.90
2022-10-28T16:52:56.629Z,59.96
2022-10-28T16:55:23.994Z,58.37
2022-10-28T16:57:50.985Z,57.72
2022-10-28T17:00:18.588Z,57.23
2022-10-28T17:02:50.722Z,58.06
2022-10-28T17:05:22.471Z,58.53
2022-10-28T17:07:50.111Z,58.77
2022-10-28T17:10:17.445Z,59.55
2022-10-28T17:12:44.737Z,59.94
2022-10-28T17:15:17.938Z,60.79
2022-10-28T17:17:49.396Z,60.61
2022-10-28T17:20:16.704Z,59.12
2022-10-28T17:22:44.420Z,58.48
2022-10-28T17:25:11.388Z,58.65
2022-10-28T17:27:39.259Z,59.04
2022-10-28T17:30:07.277Z,59.67
2022-10-28T17:32:35.336Z,60.05
2022-10-28T17:35:02.571Z,60.37
2022-10-28T17:37:30.479Z,61.18
2022-10-28T17:39:57.448Z,61.93
2022-10-28T17:42:24.894Z,61.75
2022-10-28T17:44:52.290Z,60.47
2022-10-28T17:47:22.284Z,59.86
2022-10-28T17:49:49.476Z,59.87
2022-10-28T17:52:17.121Z,60.23
2022-10-28T17:54:45.328Z,60.76
2022-10-28T17:57:12.458Z,61.45
2022-10-28T17:59:40.428Z,61.95
2022-10-28T18:02:07.525Z,62.45
2022-10-28T18:04:36.409Z,62.49
2022-10-28T18:07:03.617Z,61.03
2022-10-28T18:09:32.360Z,60.45
2022-10-28T18:12:02.064Z,60.54
2022-10-28T18:14:29.689Z,60.96
2022-10-28T18:16:56.928Z,61.47
2022-10-28T18:19:25.441Z,61.39
2022-10-28T18:21:53.077Z,62.26
2022-10-28T18:24:23.349Z,62.78
2022-10-28T18:26:54.059Z,62.57
2022-10-28T18:29:21.018Z,61.22
2022-10-28T18:31:48.201Z,60.64
2022-10-28T18:34:16.574Z,61.02
2022-10-28T18:36:45.957Z,61.79
2022-10-28T18:39:13.138Z,62.19
2022-10-28T18:41:42.815Z,62.38
2022-10-28T18:44:14.634Z,63.33
2022-10-28T18:46:42.527Z,63.38
2022-10-28T18:49:09.475Z,61.86
2022-10-28T18:51:36.861Z,61.39
2022-10-28T18:54:04.489Z,60.95
2022-10-28T18:56:31.540Z,61.66
2022-10-28T18:58:58.927Z,61.62
2022-10-28T19:01:27.626Z,62.48
2022-10-28T19:03:59.347Z,63.54
2022-10-28T19:06:29.919Z,63.34
2022-10-28T19:08:59.583Z,61.52
2022-10-28T19:11:31.274Z,60.65
2022-10-28T19:13:59.374Z,61.01
2022-10-28T19:16:27.898Z,61.78
2022-10-28T19:18:57.194Z,62.27
2022-10-28T19:21:24.848Z,63.27
2022-10-28T19:23:52.383Z,63.71
2022-10-28T19:26:19.825Z,62.16
2022-10-28T19:28:48.374Z,61.73
2022-10-28T19:31:17.342Z,62.07
2022-10-28T19:33:45.456Z,62.61
2022-10-28T19:36:25.321Z,62.82
2022-10-28T19:38:56.191Z,63.79
2022-10-28T19:41:29.801Z,63.79
2022-10-28T19:43:59.159Z,62.37
2022-10-28T19:46:30.397Z,61.51
2022-10-28T19:48:58.647Z,61.82
2022-10-28T19:51:33.587Z,62.22
2022-10-28T19:54:02.271Z,62.53
2022-10-28T19:56:30.304Z,63.18
2022-10-28T19:58:58.509Z,63.96
2022-10-28T20:01:27.746Z,64.08
2022-10-28T20:03:55.123Z,62.48
2022-10-28T20:06:23.984Z,61.71
2022-10-28T20:08:52.088Z,61.73
2022-10-28T20:11:25.766Z,62.37
2022-10-28T20:14:01.782Z,62.40
2022-10-28T20:16:29.062Z,63.31
2022-10-28T20:18:57.467Z,63.87
2022-10-28T20:21:29.558Z,63.60
2022-10-28T20:23:57.192Z,62.59
2022-10-28T20:26:28.103Z,61.79
2022-10-28T20:28:55.222Z,62.37
2022-10-28T20:33:52.784Z,63.57
2022-10-28T20:36:33.015Z,63.33
2022-10-28T20:39:23.290Z,64.42
2022-10-28T20:41:51.345Z,63.94
2022-10-28T20:44:18.484Z,62.78
2022-10-28T20:46:48.209Z,62.00
2022-10-28T20:49:15.634Z,62.64
2022-10-28T20:51:42.757Z,62.78
2022-10-28T20:54:09.817Z,63.35
2022-10-28T20:56:37.880Z,64.12
2022-10-28T20:59:05.122Z,63.91
2022-10-28T21:01:35.103Z,63.05
2022-10-28T21:04:05.354Z,62.45
2022-10-28T21:06:33.363Z,62.79
2022-10-28T21:09:00.432Z,63.41
2022-10-28T21:11:28.265Z,63.88
2022-10-28T21:13:59.355Z,64.28
2022-10-28T21:16:28.442Z,64.79
2022-10-28T21:18:55.598Z,63.67
2022-10-28T21:21:24.175Z,63.17
2022-10-28T21:23:52.744Z,63.26
2022-10-28T21:26:19.748Z,64.03
2022-10-28T21:28:51.895Z,64.32
2022-10-28T21:31:19.598Z,64.95
2022-10-28T21:36:22.226Z,63.85
2022-10-28T21:38:53.000Z,63.29
2022-10-28T21:41:20.457Z,63.44
2022-10-28T21:43:49.290Z,64.07
2022-10-28T21:46:17.223Z,64.40
2022-10-28T21:48:45.541Z,65.44
2022-10-28T21:51:15.002Z,65.56
2022-10-28T21:53:43.993Z,64.21
2022-10-28T21:56:18.300Z,63.72
2022-10-28T21:58:49.205Z,64.00
2022-10-28T22:01:21.889Z,63.84
2022-10-28T22:03:49.687Z,64.48
2022-10-28T22:06:16.718Z,64.96
2022-10-28T22:08:43.735Z,65.76
2022-10-28T22:11:15.643Z,64.30
2022-10-28T22:13:42.761Z,63.72
2022-10-28T22:16:18.938Z,64.01
2022-10-28T22:18:46.633Z,64.40
2022-10-28T22:21:25.637Z,64.39
2022-10-28T22:23:52.921Z,65.44
2022-10-28T22:26:24.689Z,65.65
2022-10-28T22:28:53.114Z,64.68
2022-10-28T22:31:25.365Z,63.97
2022-10-28T22:33:52.926Z,64.06
2022-10-28T22:36:22.212Z,64.27
2022-10-28T22:38:49.412Z,64.62
2022-10-28T22:41:18.022Z,65.67
2022-10-28T22:43:58.424Z,65.91
2022-10-28T22:46:27.768Z,64.70
2022-10-28T22:48:54.787Z,64.01
2022-10-28T22:51:21.937Z,64.14
2022-10-28T22:53:51.219Z,64.70
2022-10-28T22:56:20.749Z,64.97
2022-10-28T22:58:48.856Z,65.80
2022-10-28T23:01:17.246Z,66.20
2022-10-28T23:03:46.321Z,64.80
2022-10-28T23:06:14.909Z,64.44
2022-10-28T23:08:42.440Z,64.61
2022-10-28T23:11:13.424Z,64.70
2022-10-28T23:13:41.790Z,65.10
2022-10-28T23:16:13.983Z,65.50
2022-10-28T23:18:41.166Z,65.65
2022-10-28T23:21:21.500Z,64.48
2022-10-28T23:23:55.476Z,63.79
2022-10-28T23:26:22.554Z,63.89
2022-10-28T23:28:51.131Z,64.20
2022-10-28T23:31:18.927Z,64.80
2022-10-28T23:33:46.135Z,65.28
2022-10-28T23:36:13.892Z,65.59
2022-10-28T23:38:41.097Z,64.47
2022-10-28T23:41:10.152Z,63.77
2022-10-28T23:43:37.948Z,63.74
2022-10-28T23:46:05.766Z,64.02
2022-10-28T23:48:32.911Z,64.73
2022-10-28T23:50:59.888Z,65.42
2022-10-28T23:55:58.929Z,64.77
2022-10-28T23:58:26.134Z,64.37
